Time;durP1;ratioP1;P1;durP2;ratioP2;P2;SDS_P1;SDS_P2;PMS_P1;PMS_P2;Temp;Humidity;BMP_temperature;BMP_pressure;BME280_temperature;BME280_humidity;BME280_pressure;Samples;Min_cycle;Max_cycle;Signal;HPM_P1;HPM_P2
2022/09/02 00:00:32;;;;;;;;;;;16.00;92.30;;;;;;5074709;28;20264;-67
2022/09/02 00:02:58;;;;;;;;;;;16.00;92.20;;;;;;5074866;28;19952;-67
2022/09/02 00:05:24;;;;;;;;;;;16.00;92.00;;;;;;5074705;28;19912;-67
2022/09/02 00:07:50;;;;;;;;;;;16.00;92.10;;;;;;5074834;28;19909;-67
2022/09/02 00:10:15;;;;;;;;;;;16.10;92.00;;;;;;5074820;28;20286;-67
2022/09/02 00:12:41;;;;;;;;;;;16.10;91.80;;;;;;5074463;28;19909;-67
2022/09/02 00:15:06;;;;;;;;;;;16.10;91.90;;;;;;5074744;28;19913;-67
2022/09/02 00:17:32;;;;;;;;;;;16.10;91.90;;;;;;5074431;28;20390;-67
2022/09/02 00:19:57;;;;;;;;;;;16.10;92.00;;;;;;5074588;28;19916;-67
2022/09/02 00:22:23;;;;;;;;;;;16.00;92.10;;;;;;5074230;28;19908;-67
2022/09/02 00:24:48;;;;;;;;;;;16.00;91.90;;;;;;5074246;28;19951;-67
2022/09/02 00:27:14;;;;;;;;;;;15.90;92.00;;;;;;5074521;28;20371;-68
2022/09/02 00:29:39;;;;;;;;;;;15.90;92.20;;;;;;5074420;28;20394;-67
2022/09/02 00:32:05;;;;;;;;;;;16.00;92.00;;;;;;5074407;28;20329;-67
2022/09/02 00:34:31;;;;;;;;;;;16.00;92.00;;;;;;5074385;28;19908;-67
2022/09/02 00:36:57;;;;;;;;;;;15.90;92.00;;;;;;5074313;28;20397;-67
2022/09/02 00:39:23;;;;;;;;;;;15.90;92.20;;;;;;5074257;28;19999;-67
2022/09/02 00:41:49;;;;;;;;;;;15.90;92.10;;;;;;5074196;28;20390;-67
2022/09/02 00:44:17;;;;;;;;;;;16.00;92.00;;;;;;5074221;28;20007;-67
2022/09/02 00:46:42;;;;;;;;;;;16.00;92.30;;;;;;5073892;28;19908;-67
2022/09/02 00:51:48;;;;;;;;;;;16.00;91.70;;;;;;5091321;27;19912;-69
2022/09/02 00:54:15;;;;;;;;;;;16.10;91.50;;;;;;5091147;28;19916;-70
2022/09/02 00:56:41;;;;;;;;;;;16.10;91.60;;;;;;5091113;28;19909;-69
2022/09/02 00:59:07;;;;;;;;;;;16.00;91.80;;;;;;5091023;28;19912;-69
2022/09/02 01:01:33;;;;;;;;;;;16.00;91.70;;;;;;5089711;28;19931;-69
2022/09/02 01:03:58;;;;;;;;;;;16.00;91.70;;;;;;5090953;28;19908;-69
2022/09/02 01:06:26;;;;;;;;;;;16.00;91.70;;;;;;5090894;28;20358;-69
2022/09/02 01:08:55;;;;;;;;;;;16.10;91.70;;;;;;5090862;28;20397;-69
2022/09/02 01:11:21;;;;;;;;;;;16.10;91.60;;;;;;5090735;28;20016;-69
2022/09/02 01:13:47;;;;;;;;;;;16.10;91.30;;;;;;5090848;28;19982;-69
2022/09/02 01:16:23;;;;;;;;;;;16.10;91.40;;;;;;5090764;28;19912;-69
2022/09/02 01:18:51;;;;;;;;;;;16.10;91.50;;;;;;5090687;28;19909;-70
2022/09/02 01:21:17;;;;;;;;;;;16.10;91.40;;;;;;5123518;28;20275;-69
2022/09/02 01:23:44;;;;;;;;;;;16.10;91.50;;;;;;5089347;28;19987;-69
2022/09/02 01:26:09;;;;;;;;;;;16.10;91.50;;;;;;5090555;28;19908;-69
2022/09/02 01:28:35;;;;;;;;;;;16.10;91.50;;;;;;5090449;28;19958;-69
2022/09/02 01:31:01;;;;;;;;;;;16.10;91.60;;;;;;5090361;28;19912;-69
2022/09/02 01:33:27;;;;;;;;;;;16.10;91.40;;;;;;5090417;28;20290;-69
2022/09/02 01:35:52;;;;;;;;;;;16.10;91.40;;;;;;5090368;28;19908;-69
2022/09/02 01:38:18;;;;;;;;;;;16.10;91.30;;;;;;5089049;28;19909;-69
2022/09/02 01:40:44;;;;;;;;;;;16.10;91.60;;;;;;5090320;28;19913;-69
2022/09/02 01:43:12;;;;;;;;;;;16.20;91.40;;;;;;5088975;28;19909;-69
2022/09/02 01:45:39;;;;;;;;;;;16.10;91.50;;;;;;5090204;28;19958;-69
2022/09/02 01:48:05;;;;;;;;;;;16.10;91.50;;;;;;5090123;28;19916;-69
2022/09/02 01:50:31;;;;;;;;;;;16.10;91.70;;;;;;5100036;28;19920;-69
2022/09/02 01:52:58;;;;;;;;;;;16.10;91.90;;;;;;5092189;28;19912;-69
2022/09/02 01:55:24;;;;;;;;;;;16.00;91.80;;;;;;5092296;28;19915;-69
2022/09/02 01:57:49;;;;;;;;;;;16.00;91.90;;;;;;5110296;28;20358;-71
2022/09/02 02:00:15;;;;;;;;;;;16.00;91.80;;;;;;5110299;28;19908;-69
2022/09/02 02:02:41;;;;;;;;;;;16.00;91.80;;;;;;5099135;28;19940;-68
2022/09/02 02:05:07;;;;;;;;;;;15.90;91.90;;;;;;5096596;28;20382;-68
2022/09/02 02:07:33;;;;;;;;;;;16.00;92.10;;;;;;5096549;28;19908;-69
2022/09/02 02:09:58;;;;;;;;;;;16.00;92.00;;;;;;5078223;28;19912;-69
2022/09/02 02:12:24;;;;;;;;;;;16.00;92.10;;;;;;5078609;28;19908;-69
2022/09/02 02:14:49;;;;;;;;;;;16.00;92.10;;;;;;5096363;28;19908;-70
2022/09/02 02:17:15;;;;;;;;;;;15.90;92.10;;;;;;5096372;28;19939;-69
2022/09/02 02:19:41;;;;;;;;;;;15.90;92.40;;;;;;5096274;28;19908;-69
2022/09/02 02:22:06;;;;;;;;;;;15.90;92.50;;;;;;5096254;28;19998;-69
2022/09/02 02:24:32;;;;;;;;;;;15.80;92.50;;;;;;5096206;28;19908;-69
2022/09/02 02:26:57;;;;;;;;;;;15.80;92.90;;;;;;5078074;28;19915;-69
2022/09/02 02:29:23;;;;;;;;;;;15.70;92.80;;;;;;5077904;28;19908;-70
2022/09/02 02:31:48;;;;;;;;;;;15.70;93.00;;;;;;5078077;28;19912;-69
2022/09/02 02:34:14;;;;;;;;;;;15.70;93.10;;;;;;5061172;28;19999;-69
2022/09/02 02:36:40;;;;;;;;;;;15.70;93.30;;;;;;5077782;28;19912;-69
2022/09/02 02:39:08;;;;;;;;;;;15.70;93.10;;;;;;5061122;28;19953;-69
2022/09/02 02:41:34;;;;;;;;;;;15.70;93.10;;;;;;5095794;28;19914;-69
2022/09/02 02:43:59;;;;;;;;;;;15.70;93.10;;;;;;5095825;28;19947;-69
2022/09/02 02:46:25;;;;;;;;;;;15.70;93.20;;;;;;5096078;28;19908;-69
2022/09/02 02:48:51;;;;;;;;;;;15.70;93.30;;;;;;5095704;28;19912;-69
2022/09/02 02:51:16;;;;;;;;;;;15.70;93.60;;;;;;5095382;28;19988;-68
2022/09/02 02:53:42;;;;;;;;;;;15.70;93.40;;;;;;5095648;28;20282;-69
2022/09/02 02:56:07;;;;;;;;;;;15.60;93.70;;;;;;5095535;28;19912;-69
2022/09/02 02:58:33;;;;;;;;;;;15.60;93.90;;;;;;5095603;28;19912;-68
2022/09/02 03:00:59;;;;;;;;;;;15.60;93.80;;;;;;5095494;28;19916;-69
2022/09/02 03:03:25;;;;;;;;;;;15.60;93.80;;;;;;5077372;28;19908;-68
2022/09/02 03:05:51;;;;;;;;;;;15.60;93.90;;;;;;5077372;28;20388;-69
2022/09/02 03:08:19;;;;;;;;;;;15.60;93.70;;;;;;5095388;28;19908;-69
2022/09/02 03:10:46;;;;;;;;;;;15.60;94.00;;;;;;5077579;28;19912;-69
2022/09/02 03:13:13;;;;;;;;;;;15.50;94.20;;;;;;5076371;28;19958;-69
2022/09/02 03:15:38;;;;;;;;;;;15.40;94.30;;;;;;5077349;28;19957;-70
2022/09/02 03:18:04;;;;;;;;;;;15.40;94.30;;;;;;5095162;28;19912;-69
2022/09/02 03:20:30;;;;;;;;;;;15.40;94.70;;;;;;5095104;28;20423;-70
2022/09/02 03:22:56;;;;;;;;;;;15.40;94.60;;;;;;5095042;28;19961;-69
2022/09/02 03:25:22;;;;;;;;;;;15.40;94.60;;;;;;5095111;28;19994;-69
2022/09/02 03:27:48;;;;;;;;;;;15.40;94.70;;;;;;5095364;28;19950;-68
2022/09/02 03:30:16;;;;;;;;;;;15.40;94.80;;;;;;5094967;28;19912;-68
2022/09/02 03:32:41;;;;;;;;;;;15.40;94.80;;;;;;5095051;28;19908;-68
2022/09/02 03:35:08;;;;;;;;;;;15.40;95.00;;;;;;5094897;28;19976;-69
2022/09/02 03:37:34;;;;;;;;;;;15.30;95.00;;;;;;5094894;28;19947;-68
2022/09/02 03:40:01;;;;;;;;;;;15.30;95.20;;;;;;5094810;28;19908;-69
2022/09/02 03:42:26;;;;;;;;;;;15.30;95.30;;;;;;5094660;28;19908;-70
2022/09/02 03:44:52;;;;;;;;;;;15.30;95.40;;;;;;5076697;28;20366;-70
2022/09/02 03:47:20;;;;;;;;;;;15.30;95.50;;;;;;5076483;28;19951;-68
2022/09/02 03:49:46;;;;;;;;;;;15.30;95.70;;;;;;5094301;28;19920;-68
2022/09/02 03:52:11;;;;;;;;;;;15.30;95.80;;;;;;5059719;28;19908;-68
2022/09/02 03:54:37;;;;;;;;;;;15.20;95.80;;;;;;5094472;28;19914;-68
2022/09/02 03:57:02;;;;;;;;;;;15.20;96.20;;;;;;5076325;28;19915;-68
2022/09/02 03:59:28;;;;;;;;;;;15.20;96.30;;;;;;5094405;28;20382;-69
2022/09/02 04:01:54;;;;;;;;;;;15.10;96.30;;;;;;5076203;28;19953;-70
2022/09/02 04:04:19;;;;;;;;;;;15.10;96.60;;;;;;5076184;28;19908;-69
2022/09/02 04:06:45;;;;;;;;;;;15.10;96.90;;;;;;5076042;28;20263;-69
2022/09/02 04:09:10;;;;;;;;;;;15.00;97.20;;;;;;5094220;28;19908;-68
2022/09/02 04:11:36;;;;;;;;;;;15.00;97.20;;;;;;5094169;28;20003;-69
2022/09/02 04:14:02;;;;;;;;;;;15.00;97.50;;;;;;5094179;28;19909;-68
2022/09/02 04:16:27;;;;;;;;;;;14.90;97.50;;;;;;5076091;28;20015;-68
2022/09/02 04:18:55;;;;;;;;;;;14.90;97.70;;;;;;5094121;28;19915;-69
2022/09/02 04:21:22;;;;;;;;;;;14.90;97.80;;;;;;5075970;28;20294;-69
2022/09/02 04:23:48;;;;;;;;;;;14.90;98.00;;;;;;5059145;28;20393;-69
2022/09/02 04:26:15;;;;;;;;;;;14.90;98.00;;;;;;5093650;28;19908;-69
2022/09/02 04:28:41;;;;;;;;;;;14.90;98.30;;;;;;5075821;28;19931;-69
2022/09/02 04:31:08;;;;;;;;;;;14.90;98.40;;;;;;5093826;28;19912;-69
2022/09/02 04:33:34;;;;;;;;;;;14.90;98.60;;;;;;5059094;28;20294;-68
2022/09/02 04:36:03;;;;;;;;;;;14.90;98.60;;;;;;5093776;28;20366;-68
2022/09/02 04:38:28;;;;;;;;;;;14.90;98.80;;;;;;5093753;28;19919;-69
2022/09/02 04:40:53;;;;;;;;;;;14.90;98.80;;;;;;5093783;28;19908;-69
2022/09/02 04:43:19;;;;;;;;;;;14.90;99.10;;;;;;5075574;28;19944;-69
2022/09/02 04:45:45;;;;;;;;;;;14.90;99.10;;;;;;5093746;28;19923;-69
2022/09/02 04:48:10;;;;;;;;;;;15.00;99.10;;;;;;5093633;28;19987;-69
2022/09/02 04:50:37;;;;;;;;;;;15.00;99.10;;;;;;5075372;28;19927;-69
2022/09/02 04:53:03;;;;;;;;;;;15.00;99.20;;;;;;5093599;28;19908;-68
2022/09/02 04:55:28;;;;;;;;;;;15.00;99.20;;;;;;5075529;28;19908;-69
2022/09/02 04:57:54;;;;;;;;;;;15.10;99.10;;;;;;5075502;28;19908;-69
2022/09/02 05:00:20;;;;;;;;;;;15.10;99.50;;;;;;5093640;28;19908;-69
2022/09/02 05:02:46;;;;;;;;;;;15.10;99.30;;;;;;5093586;28;20318;-69
2022/09/02 05:05:11;;;;;;;;;;;15.20;99.50;;;;;;5093493;28;19908;-69
2022/09/02 05:07:37;;;;;;;;;;;15.20;99.20;;;;;;5093541;28;19908;-68
2022/09/02 05:10:03;;;;;;;;;;;15.30;99.30;;;;;;5075306;28;19912;-69
2022/09/02 05:12:30;;;;;;;;;;;15.30;99.40;;;;;;5093445;28;19908;-70
2022/09/02 05:14:59;;;;;;;;;;;15.30;99.40;;;;;;5093503;28;19908;-70
2022/09/02 05:17:25;;;;;;;;;;;15.30;99.40;;;;;;5093357;28;19922;-70
2022/09/02 05:19:51;;;;;;;;;;;15.40;99.40;;;;;;5093319;28;20397;-70
2022/09/02 05:22:17;;;;;;;;;;;15.40;99.40;;;;;;5075173;28;19908;-70
2022/09/02 05:24:42;;;;;;;;;;;15.40;99.50;;;;;;5093364;28;20429;-70
2022/09/02 05:27:08;;;;;;;;;;;15.50;99.20;;;;;;5093362;28;19912;-69
2022/09/02 05:29:34;;;;;;;;;;;15.70;99.00;;;;;;5093234;28;19908;-70
2022/09/02 05:31:59;;;;;;;;;;;15.80;98.80;;;;;;5093336;28;19958;-70
2022/09/02 05:34:25;;;;;;;;;;;15.90;98.70;;;;;;5075094;28;19908;-71
2022/09/02 05:36:50;;;;;;;;;;;15.90;98.70;;;;;;5094267;28;19908;-71
2022/09/02 05:39:16;;;;;;;;;;;16.00;98.40;;;;;;5097041;28;19947;-70
2022/09/02 05:41:42;;;;;;;;;;;16.10;98.40;;;;;;5097032;28;19997;-70
2022/09/02 05:44:07;;;;;;;;;;;16.30;98.10;;;;;;5062174;28;19912;-70
2022/09/02 05:46:33;;;;;;;;;;;16.50;97.50;;;;;;5078741;28;20313;-70
2022/09/02 05:49:06;;;;;;;;;;;16.70;97.50;;;;;;5096974;28;20399;-70
2022/09/02 05:51:36;;;;;;;;;;;17.30;96.70;;;;;;5096595;28;19920;-70
2022/09/02 05:54:01;;;;;;;;;;;18.20;94.10;;;;;;5059729;28;19908;-70
2022/09/02 05:56:27;;;;;;;;;;;19.80;91.40;;;;;;5078117;28;19908;-71
2022/09/02 05:58:54;;;;;;;;;;;20.80;88.90;;;;;;5096623;28;19914;-71
2022/09/02 06:01:19;;;;;;;;;;;21.80;84.40;;;;;;5096503;28;19916;-71
2022/09/02 06:03:45;;;;;;;;;;;22.50;81.20;;;;;;5078276;28;20290;-70
2022/09/02 06:06:11;;;;;;;;;;;23.20;77.20;;;;;;5078082;28;19908;-70
2022/09/02 06:08:37;;;;;;;;;;;23.30;77.00;;;;;;5096362;28;19908;-69
2022/09/02 06:11:03;;;;;;;;;;;23.60;75.20;;;;;;5095963;28;20371;-69
2022/09/02 06:13:29;;;;;;;;;;;23.50;75.00;;;;;;5096200;28;19966;-69
2022/09/02 06:15:56;;;;;;;;;;;23.50;75.00;;;;;;5077928;28;20374;-70
2022/09/02 06:18:22;;;;;;;;;;;23.70;75.00;;;;;;5096107;28;19958;-70
2022/09/02 06:20:47;;;;;;;;;;;24.70;72.90;;;;;;5096106;28;19912;-70
2022/09/02 06:23:14;;;;;;;;;;;25.00;71.10;;;;;;5095749;28;19912;-71
2022/09/02 06:25:40;;;;;;;;;;;24.50;71.20;;;;;;5095938;28;20431;-70
2022/09/02 06:28:06;;;;;;;;;;;24.00;72.40;;;;;;5077961;28;19912;-69
2022/09/02 06:30:31;;;;;;;;;;;24.50;72.60;;;;;;5095799;28;19919;-69
2022/09/02 06:32:57;;;;;;;;;;;24.80;70.50;;;;;;5076684;28;19917;-70
2022/09/02 06:35:22;;;;;;;;;;;25.30;69.30;;;;;;5077062;28;19920;-69
2022/09/02 06:37:48;;;;;;;;;;;26.00;68.60;;;;;;5095348;28;19915;-69
2022/09/02 06:40:14;;;;;;;;;;;26.80;65.90;;;;;;5070217;28;19966;-69
2022/09/02 06:42:40;;;;;;;;;;;27.00;63.70;;;;;;5059223;28;20381;-70
2022/09/02 06:45:06;;;;;;;;;;;26.80;65.20;;;;;;5091686;28;19912;-69
2022/09/02 06:47:31;;;;;;;;;;;26.90;64.60;;;;;;5094674;28;19996;-70
2022/09/02 06:49:57;;;;;;;;;;;26.80;64.20;;;;;;5076463;28;19942;-69
2022/09/02 06:52:23;;;;;;;;;;;27.50;63.80;;;;;;5095701;28;20038;-71
2022/09/02 06:54:49;;;;;;;;;;;28.10;62.30;;;;;;5087479;28;19909;-69
2022/09/02 06:57:15;;;;;;;;;;;27.40;61.30;;;;;;5086279;28;20291;-69
2022/09/02 06:59:41;;;;;;;;;;;27.60;62.90;;;;;;5095629;28;19908;-69
2022/09/02 07:02:06;;;;;;;;;;;27.50;62.20;;;;;;5069193;28;19913;-69
2022/09/02 07:07:17;;;;;;;;;;;27.60;60.70;;;;;;5077622;28;20182;-71
2022/09/02 07:09:43;;;;;;;;;;;27.40;62.40;;;;;;5067489;28;19943;-71
2022/09/02 07:12:08;;;;;;;;;;;27.40;61.70;;;;;;5092179;28;19919;-68
2022/09/02 07:14:36;;;;;;;;;;;27.70;61.40;;;;;;5095029;28;19912;-69
2022/09/02 07:17:02;;;;;;;;;;;28.10;61.10;;;;;;5075621;28;19977;-70
2022/09/02 07:19:28;;;;;;;;;;;28.80;59.00;;;;;;5093745;28;19916;-71
2022/09/02 07:21:53;;;;;;;;;;;28.30;59.80;;;;;;5094338;28;19912;-70
2022/09/02 07:24:19;;;;;;;;;;;29.60;59.00;;;;;;5073841;28;20380;-69
2022/09/02 07:26:45;;;;;;;;;;;27.60;60.50;;;;;;5076376;28;19918;-69
2022/09/02 07:29:11;;;;;;;;;;;27.60;61.40;;;;;;5092273;28;19908;-69
2022/09/02 07:31:38;;;;;;;;;;;27.40;61.90;;;;;;5094114;28;20366;-69
2022/09/02 07:34:15;;;;;;;;;;;26.80;63.40;;;;;;5073636;28;19912;-69
2022/09/02 07:36:41;;;;;;;;;;;26.20;64.10;;;;;;5077276;28;20377;-69
2022/09/02 07:39:07;;;;;;;;;;;25.10;66.50;;;;;;5070602;28;20293;-69
2022/09/02 07:41:33;;;;;;;;;;;24.40;68.80;;;;;;5094264;28;19912;-70
2022/09/02 07:43:59;;;;;;;;;;;23.70;70.70;;;;;;5076086;28;20389;-70
2022/09/02 07:46:24;;;;;;;;;;;23.80;71.60;;;;;;5075737;28;19908;-71
2022/09/02 07:48:50;;;;;;;;;;;23.70;72.10;;;;;;5075116;28;20013;-70
2022/09/02 07:51:18;;;;;;;;;;;23.60;72.60;;;;;;5093005;28;19920;-70
2022/09/02 07:53:43;;;;;;;;;;;23.50;72.40;;;;;;5092957;28;19912;-69
2022/09/02 07:56:12;;;;;;;;;;;23.80;72.50;;;;;;5089777;28;19927;-69
2022/09/02 07:58:38;;;;;;;;;;;23.70;71.60;;;;;;5068715;28;19919;-71
2022/09/02 08:01:04;;;;;;;;;;;22.70;74.10;;;;;;5092240;28;19912;-70
2022/09/02 08:03:30;;;;;;;;;;;22.70;75.40;;;;;;5084722;28;20285;-70
2022/09/02 08:05:56;;;;;;;;;;;22.50;76.50;;;;;;5092042;28;19957;-69
2022/09/02 08:08:21;;;;;;;;;;;22.70;76.30;;;;;;5072896;28;19926;-69
2022/09/02 08:10:48;;;;;;;;;;;22.90;75.30;;;;;;5071399;28;20018;-69
2022/09/02 08:13:14;;;;;;;;;;;23.20;75.50;;;;;;5092265;28;19993;-70
2022/09/02 08:15:39;;;;;;;;;;;23.30;75.30;;;;;;5058617;28;19916;-70
2022/09/02 08:18:05;;;;;;;;;;;23.70;73.10;;;;;;5073624;28;19912;-70
2022/09/02 08:20:31;;;;;;;;;;;23.40;73.70;;;;;;5072885;28;19912;-71
2022/09/02 08:22:57;;;;;;;;;;;23.30;74.10;;;;;;5071456;28;19927;-70
2022/09/02 08:25:23;;;;;;;;;;;23.20;75.40;;;;;;5090802;28;20006;-70
2022/09/02 08:27:49;;;;;;;;;;;23.20;76.00;;;;;;5072746;28;19912;-70
2022/09/02 08:30:14;;;;;;;;;;;23.10;76.40;;;;;;5089303;28;19916;-69
2022/09/02 08:32:40;;;;;;;;;;;22.70;77.10;;;;;;5078592;28;19912;-71
2022/09/02 08:35:06;;;;;;;;;;;22.80;77.40;;;;;;5074700;28;19912;-69
2022/09/02 08:37:32;;;;;;;;;;;23.20;76.20;;;;;;5074187;28;19912;-69
2022/09/02 08:39:58;;;;;;;;;;;23.50;75.70;;;;;;5092896;28;19916;-69
2022/09/02 08:42:30;;;;;;;;;;;23.50;74.70;;;;;;5058066;28;19989;-69
2022/09/02 08:44:59;;;;;;;;;;;23.40;76.60;;;;;;5060507;28;20293;-69
2022/09/02 08:47:28;;;;;;;;;;;23.10;75.90;;;;;;5074976;28;20282;-71
2022/09/02 08:49:58;;;;;;;;;;;22.60;77.10;;;;;;5066518;28;19917;-69
2022/09/02 08:52:28;;;;;;;;;;;22.30;78.30;;;;;;5064484;28;19913;-70
2022/09/02 08:54:54;;;;;;;;;;;22.00;79.90;;;;;;5070899;28;20289;-70
2022/09/02 08:57:25;;;;;;;;;;;21.90;80.10;;;;;;5073332;28;19999;-70
2022/09/02 08:59:51;;;;;;;;;;;22.00;81.50;;;;;;5070864;28;19920;-69
2022/09/02 09:02:22;;;;;;;;;;;22.10;81.00;;;;;;5072569;28;19913;-69
2022/09/02 09:05:04;;;;;;;;;;;22.10;81.50;;;;;;5071639;28;19970;-69
2022/09/02 09:07:36;;;;;;;;;;;22.00;81.60;;;;;;5069082;28;20389;-70
2022/09/02 09:10:07;;;;;;;;;;;21.70;80.70;;;;;;5058886;28;19923;-69
2022/09/02 09:12:53;;;;;;;;;;;21.70;81.80;;;;;;5073854;28;19919;-69
2022/09/02 09:15:29;;;;;;;;;;;21.60;81.30;;;;;;5074368;28;20045;-69
2022/09/02 09:17:58;;;;;;;;;;;21.30;83.20;;;;;;5071958;28;20438;-70
2022/09/02 09:20:24;;;;;;;;;;;21.60;83.20;;;;;;5075891;28;20382;-70
2022/09/02 09:22:55;;;;;;;;;;;21.90;81.40;;;;;;5105385;28;20371;-69
2022/09/02 09:25:28;;;;;;;;;;;22.30;81.10;;;;;;5073029;28;19912;-70
2022/09/02 09:27:55;;;;;;;;;;;22.80;79.40;;;;;;5072490;28;20359;-69
2022/09/02 09:30:21;;;;;;;;;;;23.40;77.80;;;;;;5076140;28;19916;-69
2022/09/02 09:32:50;;;;;;;;;;;23.70;78.10;;;;;;5055163;28;19962;-69
2022/09/02 09:35:16;;;;;;;;;;;25.20;74.60;;;;;;5073701;28;20321;-70
2022/09/02 09:37:45;;;;;;;;;;;26.20;69.20;;;;;;5069629;28;19943;-69
2022/09/02 09:43:11;;;;;;;;;;;26.40;68.10;;;;;;5085695;27;19917;-68
2022/09/02 09:45:38;;;;;;;;;;;26.20;68.20;;;;;;5070360;28;19944;-68
2022/09/02 09:48:28;;;;;;;;;;;26.10;69.10;;;;;;5070452;28;19912;-68
2022/09/02 09:50:56;;;;;;;;;;;25.70;70.10;;;;;;5072793;28;19927;-68
2022/09/02 09:53:24;;;;;;;;;;;26.20;70.10;;;;;;5068551;28;19913;-67
2022/09/02 09:55:51;;;;;;;;;;;26.60;68.70;;;;;;5078388;28;20438;-68
2022/09/02 09:58:17;;;;;;;;;;;27.30;67.30;;;;;;5076662;28;19920;-68
2022/09/02 10:00:43;;;;;;;;;;;28.00;66.60;;;;;;5085695;28;19913;-68
2022/09/02 10:03:18;;;;;;;;;;;28.50;64.80;;;;;;5076643;28;20011;-68
2022/09/02 10:05:43;;;;;;;;;;;28.20;64.80;;;;;;5069051;28;20028;-69
2022/09/02 10:10:59;;;;;;;;;;;27.40;66.00;;;;;;5069436;28;19917;-68
2022/09/02 10:13:27;;;;;;;;;;;26.90;67.80;;;;;;5070893;28;19913;-69
2022/09/02 10:16:12;;;;;;;;;;;27.10;67.90;;;;;;5057252;28;19909;-67
2022/09/02 10:18:45;;;;;;;;;;;27.30;67.30;;;;;;5050006;28;20011;-67
2022/09/02 10:21:30;;;;;;;;;;;26.90;66.00;;;;;;5057679;28;19912;-68
2022/09/02 10:24:03;;;;;;;;;;;26.40;67.20;;;;;;5046833;28;19917;-67
2022/09/02 10:26:37;;;;;;;;;;;26.20;68.50;;;;;;5051673;28;19909;-67
2022/09/02 10:29:16;;;;;;;;;;;26.20;68.30;;;;;;5059019;28;19927;-68
2022/09/02 10:31:52;;;;;;;;;;;27.10;67.10;;;;;;5058378;28;19909;-68
2022/09/02 10:34:26;;;;;;;;;;;28.40;64.60;;;;;;5052223;28;19913;-68
2022/09/02 10:37:06;;;;;;;;;;;28.90;61.70;;;;;;5045983;28;19959;-68
2022/09/02 10:39:42;;;;;;;;;;;28.90;65.90;;;;;;5054489;28;19951;-68
2022/09/02 10:42:13;;;;;;;;;;;28.50;61.70;;;;;;5053536;28;19963;-67
2022/09/02 10:44:58;;;;;;;;;;;27.90;61.90;;;;;;5056291;28;20374;-68
2022/09/02 10:47:40;;;;;;;;;;;28.10;62.80;;;;;;5057026;28;19962;-69
2022/09/02 10:50:25;;;;;;;;;;;28.50;62.00;;;;;;5050903;28;20390;-69
2022/09/02 10:52:57;;;;;;;;;;;28.70;62.10;;;;;;5048605;28;20425;-69
2022/09/02 10:55:30;;;;;;;;;;;28.60;61.60;;;;;;5051545;28;19959;-68
2022/09/02 10:57:59;;;;;;;;;;;28.20;62.50;;;;;;5048848;28;19959;-67
2022/09/02 11:00:25;;;;;;;;;;;28.10;62.40;;;;;;5049724;28;20347;-68
2022/09/02 11:02:55;;;;;;;;;;;28.20;62.90;;;;;;5050405;28;20004;-68
2022/09/02 11:05:24;;;;;;;;;;;27.80;62.10;;;;;;5056203;28;19913;-68
2022/09/02 11:07:54;;;;;;;;;;;27.50;63.80;;;;;;5048474;28;20276;-69
2022/09/02 11:10:26;;;;;;;;;;;27.70;64.40;;;;;;5064627;28;19928;-68
2022/09/02 11:13:02;;;;;;;;;;;28.10;62.20;;;;;;5051061;28;20012;-68
2022/09/02 11:15:38;;;;;;;;;;;28.10;61.50;;;;;;5050667;28;20268;-68
2022/09/02 11:18:16;;;;;;;;;;;28.00;61.00;;;;;;5052134;28;19966;-68
2022/09/02 11:21:02;;;;;;;;;;;27.30;63.20;;;;;;5055182;28;19972;-68
2022/09/02 11:23:47;;;;;;;;;;;26.80;64.70;;;;;;5052434;28;19913;-68
2022/09/02 11:26:23;;;;;;;;;;;26.20;64.20;;;;;;5023104;28;19921;-67
2022/09/02 11:28:53;;;;;;;;;;;25.90;64.10;;;;;;5034986;28;19920;-68
2022/09/02 11:31:23;;;;;;;;;;;25.80;65.50;;;;;;5034320;28;19928;-68
2022/09/02 11:33:54;;;;;;;;;;;25.60;65.90;;;;;;5042413;28;20259;-70
2022/09/02 11:36:19;;;;;;;;;;;25.50;66.70;;;;;;5043807;28;20013;-67
2022/09/02 11:38:55;;;;;;;;;;;25.80;66.20;;;;;;5016168;28;20349;-70
2022/09/02 11:41:25;;;;;;;;;;;26.00;65.60;;;;;;5016205;28;20008;-68
2022/09/02 11:43:54;;;;;;;;;;;26.10;66.40;;;;;;5015546;28;20000;-69
2022/09/02 11:46:30;;;;;;;;;;;26.60;63.50;;;;;;5015976;28;19960;-68
2022/09/02 11:49:15;;;;;;;;;;;26.60;61.60;;;;;;5016045;28;20367;-68
2022/09/02 11:51:51;;;;;;;;;;;26.50;61.90;;;;;;5015771;28;19910;-69
2022/09/02 11:54:18;;;;;;;;;;;26.40;62.20;;;;;;5048009;28;20340;-66
2022/09/02 11:56:46;;;;;;;;;;;26.40;60.30;;;;;;5047561;28;20277;-65
2022/09/02 11:59:37;;;;;;;;;;;26.40;60.90;;;;;;5016067;28;20000;-65
2022/09/02 12:02:04;;;;;;;;;;;26.20;59.70;;;;;;5015191;28;19949;-65
2022/09/02 12:04:30;;;;;;;;;;;26.60;61.30;;;;;;5014463;28;20390;-65
2022/09/02 12:09:42;;;;;;;;;;;27.10;58.30;;;;;;5091173;27;20298;-65
2022/09/02 12:12:08;;;;;;;;;;;26.90;58.60;;;;;;5090902;28;19959;-65
2022/09/02 12:14:37;;;;;;;;;;;27.50;58.80;;;;;;5090999;28;19912;-65
2022/09/02 12:17:04;;;;;;;;;;;27.90;57.40;;;;;;5090832;28;20290;-65
2022/09/02 12:19:40;;;;;;;;;;;27.80;56.60;;;;;;5090803;28;20384;-65
2022/09/02 12:22:25;;;;;;;;;;;27.50;56.20;;;;;;5090686;28;19915;-65
2022/09/02 12:24:51;;;;;;;;;;;26.90;56.90;;;;;;5090484;28;19910;-66
2022/09/02 12:27:21;;;;;;;;;;;26.70;58.00;;;;;;5090609;28;19963;-65
2022/09/02 12:29:46;;;;;;;;;;;26.80;58.10;;;;;;5091045;28;20370;-66
2022/09/02 12:32:32;;;;;;;;;;;26.80;57.80;;;;;;5090730;28;19916;-65
2022/09/02 12:35:07;;;;;;;;;;;26.90;57.90;;;;;;5090752;28;19951;-66
2022/09/02 12:37:50;;;;;;;;;;;26.90;57.30;;;;;;5090802;28;19954;-65
2022/09/02 12:40:18;;;;;;;;;;;26.70;57.30;;;;;;5090832;28;19915;-64
2022/09/02 12:42:45;;;;;;;;;;;26.40;57.40;;;;;;5090353;28;19995;-65
2022/09/02 12:45:12;;;;;;;;;;;26.70;58.20;;;;;;5090457;28;19951;-65
2022/09/02 12:47:58;;;;;;;;;;;27.10;57.20;;;;;;5090442;28;20370;-64
2022/09/02 12:50:44;;;;;;;;;;;27.40;57.00;;;;;;5090471;28;20328;-64
2022/09/02 12:53:30;;;;;;;;;;;27.10;54.90;;;;;;5089061;28;19950;-64
2022/09/02 12:55:57;;;;;;;;;;;27.00;55.40;;;;;;5090236;28;19962;-65
2022/09/02 12:58:23;;;;;;;;;;;26.90;54.70;;;;;;5090553;28;19931;-65
2022/09/02 13:01:08;;;;;;;;;;;26.90;55.60;;;;;;5090287;28;20355;-65
2022/09/02 13:03:54;;;;;;;;;;;26.50;54.80;;;;;;5090204;28;20329;-65
2022/09/02 13:06:25;;;;;;;;;;;25.90;55.40;;;;;;5090116;28;20341;-65
2022/09/02 13:09:03;;;;;;;;;;;25.70;56.50;;;;;;5103665;28;20083;-65
2022/09/02 13:11:49;;;;;;;;;;;25.70;57.00;;;;;;5110439;28;19951;-65
2022/09/02 13:17:19;;;;;;;;;;;25.60;57.00;;;;;;5091294;27;20242;-65
2022/09/02 13:20:04;;;;;;;;;;;25.40;57.10;;;;;;5091355;28;19913;-66
2022/09/02 13:22:33;;;;;;;;;;;25.00;58.00;;;;;;5091306;28;20374;-66
2022/09/02 13:25:18;;;;;;;;;;;25.60;57.90;;;;;;5091138;28;19908;-66
2022/09/02 13:28:03;;;;;;;;;;;26.20;57.20;;;;;;5091039;28;20011;-66
2022/09/02 13:30:49;;;;;;;;;;;26.30;56.30;;;;;;5091123;28;19908;-66
2022/09/02 13:33:14;;;;;;;;;;;26.80;55.80;;;;;;5090937;28;19970;-66
2022/09/02 13:35:40;;;;;;;;;;;26.90;55.30;;;;;;5090701;28;20325;-65
2022/09/02 13:38:13;;;;;;;;;;;27.00;56.70;;;;;;5090779;28;19909;-66
2022/09/02 13:40:39;;;;;;;;;;;27.10;55.10;;;;;;5090976;28;20358;-66
2022/09/02 13:43:14;;;;;;;;;;;27.10;55.00;;;;;;5090870;28;19909;-66
2022/09/02 13:45:40;;;;;;;;;;;26.80;54.80;;;;;;5090911;28;19909;-66
2022/09/02 13:48:07;;;;;;;;;;;26.90;55.80;;;;;;5123726;28;20278;-66
2022/09/02 13:50:32;;;;;;;;;;;27.00;55.40;;;;;;5090769;28;19908;-66
2022/09/02 13:53:03;;;;;;;;;;;27.00;54.50;;;;;;5090743;28;19909;-66
2022/09/02 13:55:28;;;;;;;;;;;27.00;54.60;;;;;;5123215;28;19943;-66
2022/09/02 13:57:56;;;;;;;;;;;27.00;55.60;;;;;;5090493;28;19915;-66
2022/09/02 14:00:28;;;;;;;;;;;27.00;56.10;;;;;;5090656;28;20366;-66
2022/09/02 14:03:02;;;;;;;;;;;26.80;55.80;;;;;;5123398;28;19909;-66
2022/09/02 14:05:28;;;;;;;;;;;26.80;56.00;;;;;;5090541;28;19959;-66
2022/09/02 14:07:56;;;;;;;;;;;26.40;56.20;;;;;;5090265;28;19985;-63
2022/09/02 14:10:25;;;;;;;;;;;26.30;56.90;;;;;;5090420;28;19908;-64
2022/09/02 14:12:51;;;;;;;;;;;26.10;57.00;;;;;;5090413;28;20381;-64
2022/09/02 14:15:22;;;;;;;;;;;25.80;57.70;;;;;;5122808;28;19921;-65
2022/09/02 14:18:07;;;;;;;;;;;25.50;57.80;;;;;;5090326;28;19909;-64
2022/09/02 14:20:33;;;;;;;;;;;25.40;58.20;;;;;;5089977;28;19908;-65
2022/09/02 14:22:59;;;;;;;;;;;25.50;58.40;;;;;;5090228;28;19915;-64
2022/09/02 14:25:26;;;;;;;;;;;25.60;58.20;;;;;;5089938;28;20003;-65
2022/09/02 14:27:52;;;;;;;;;;;25.50;58.70;;;;;;5079457;28;19908;-64
2022/09/02 14:30:28;;;;;;;;;;;25.70;58.40;;;;;;5076301;28;20325;-64
2022/09/02 14:33:13;;;;;;;;;;;25.80;58.40;;;;;;5109170;28;19915;-64
2022/09/02 14:35:39;;;;;;;;;;;26.20;57.80;;;;;;5076243;28;19961;-64
2022/09/02 14:38:04;;;;;;;;;;;26.20;57.40;;;;;;5076437;28;19912;-64
2022/09/02 14:40:31;;;;;;;;;;;25.80;57.30;;;;;;5076187;28;19951;-64